createdAt,value
2018-01-05T00:02:25.037Z,7.78
2018-01-05T00:04:54.509Z,7.71
2018-01-05T00:07:23.273Z,7.72
2018-01-05T00:09:52.382Z,7.75
2018-01-05T00:12:21.511Z,7.74
2018-01-05T00:14:49.842Z,7.68
2018-01-05T00:17:18.989Z,7.55
2018-01-05T00:19:47.341Z,7.31
2018-01-05T00:22:16.433Z,7.13
2018-01-05T00:24:45.562Z,7.15
2018-01-05T00:27:13.888Z,7.21
2018-01-05T00:29:43.020Z,7.26
2018-01-05T00:32:11.376Z,7.30
2018-01-05T00:34:40.137Z,7.33
2018-01-05T00:37:08.481Z,7.31
2018-01-05T00:39:37.242Z,7.38
2018-01-05T00:42:05.569Z,7.48
2018-01-05T00:44:34.285Z,7.55
2018-01-05T00:47:03.438Z,7.61
2018-01-05T00:49:32.216Z,7.65
2018-01-05T00:52:00.526Z,7.69
2018-01-05T00:54:28.842Z,7.74
2018-01-05T00:56:57.192Z,7.81
2018-01-05T00:59:26.657Z,7.89
2018-01-05T01:01:55.029Z,7.96
2018-01-05T01:04:23.380Z,8.04
2018-01-05T01:06:51.712Z,8.16
2018-01-05T01:09:20.064Z,8.28
2018-01-05T01:11:48.388Z,8.36
2018-01-05T01:14:17.508Z,8.40
2018-01-05T01:16:45.888Z,8.45
2018-01-05T01:19:14.221Z,8.57
2018-01-05T01:21:43.352Z,8.65
2018-01-05T01:24:11.668Z,8.70
2018-01-05T01:26:40.416Z,8.70
2018-01-05T01:29:09.184Z,8.71
2018-01-05T01:31:38.272Z,8.70
2018-01-05T01:34:06.636Z,8.48
2018-01-05T01:36:34.984Z,8.36
2018-01-05T01:39:04.076Z,8.24
2018-01-05T01:41:33.220Z,8.12
2018-01-05T01:44:01.976Z,8.11
2018-01-05T01:46:30.331Z,8.05
2018-01-05T01:48:59.089Z,7.97
2018-01-05T01:51:28.223Z,7.96
2018-01-05T01:53:56.936Z,8.00
2018-01-05T01:56:25.259Z,8.05
2018-01-05T01:58:54.388Z,8.00
2018-01-05T02:01:22.720Z,8.04
2018-01-05T02:03:51.856Z,8.26
2018-01-05T02:06:20.948Z,8.50
2018-01-05T02:08:49.273Z,8.65
2018-01-05T02:11:18.764Z,8.68
2018-01-05T02:13:47.101Z,8.69
2018-01-05T02:16:15.460Z,8.82
2018-01-05T02:18:44.205Z,8.90
2018-01-05T02:21:12.535Z,8.74
2018-01-05T02:23:41.779Z,8.56
2018-01-05T02:26:10.121Z,8.42
2018-01-05T02:28:38.515Z,8.28
2018-01-05T02:31:06.840Z,8.21
2018-01-05T02:33:35.595Z,8.13
2018-01-05T02:36:03.912Z,8.13
2018-01-05T02:38:32.276Z,8.07
2018-01-05T02:41:01.408Z,8.05
2018-01-05T02:43:29.780Z,7.97
2018-01-05T02:45:58.121Z,8.06
2018-01-05T02:48:27.587Z,8.07
2018-01-05T02:50:55.964Z,8.16
2018-01-05T02:53:25.107Z,8.13
2018-01-05T02:55:54.208Z,8.05
2018-01-05T02:58:22.539Z,7.98
2018-01-05T03:00:50.900Z,7.86
2018-01-05T03:03:19.640Z,7.93
2018-01-05T03:05:48.773Z,7.88
2018-01-05T03:08:17.545Z,7.78
2018-01-05T03:10:45.907Z,7.64
2018-01-05T03:13:15.004Z,7.74
2018-01-05T03:15:44.135Z,7.71
2018-01-05T03:18:12.511Z,7.66
2018-01-05T03:20:40.891Z,7.50
2018-01-05T03:23:09.231Z,7.63
2018-01-05T03:25:38.335Z,7.74
2018-01-05T03:28:07.497Z,7.88
2018-01-05T03:30:36.597Z,7.87
2018-01-05T03:33:05.315Z,7.72
2018-01-05T03:35:34.455Z,7.69
2018-01-05T03:38:03.104Z,7.71
2018-01-05T03:40:31.431Z,7.63
2018-01-05T03:42:59.824Z,7.77
2018-01-05T03:45:28.547Z,7.69
2018-01-05T03:47:57.327Z,7.80
2018-01-05T03:50:26.427Z,7.75
2018-01-05T03:52:54.799Z,7.74
2018-01-05T03:55:23.931Z,7.66
2018-01-05T03:57:52.663Z,7.66
2018-01-05T04:00:21.415Z,7.71
2018-01-05T04:02:50.139Z,7.70
2018-01-05T04:05:19.283Z,7.65
2018-01-05T04:07:47.639Z,7.66
2018-01-05T04:10:15.947Z,7.61
2018-01-05T04:12:45.102Z,7.54
2018-01-05T04:15:14.407Z,7.45
2018-01-05T04:17:43.167Z,7.44
2018-01-05T04:20:11.502Z,7.49
2018-01-05T04:22:40.251Z,7.44
2018-01-05T04:25:09.381Z,7.38
2018-01-05T04:27:38.534Z,7.55
2018-01-05T04:30:07.643Z,7.78
2018-01-05T04:32:36.047Z,8.00
2018-01-05T04:35:04.431Z,8.15
2018-01-05T04:37:32.751Z,7.99
2018-01-05T04:40:02.843Z,7.87
2018-01-05T04:42:31.180Z,7.74
2018-01-05T04:44:59.555Z,7.63
2018-01-05T04:47:28.634Z,7.55
2018-01-05T04:49:58.116Z,7.46
2018-01-05T04:52:26.826Z,7.54
2018-01-05T04:54:55.578Z,7.51
2018-01-05T04:57:24.712Z,7.33
2018-01-05T04:59:54.382Z,7.44
2018-01-05T05:02:22.735Z,7.47
2018-01-05T05:04:51.831Z,7.44
2018-01-05T05:07:20.161Z,7.28
2018-01-05T05:09:49.286Z,7.27
2018-01-05T05:12:18.394Z,7.33
2018-01-05T05:14:47.519Z,7.22
2018-01-05T05:17:16.276Z,7.22
2018-01-05T05:19:44.658Z,7.28
2018-01-05T05:22:13.369Z,7.40
2018-01-05T05:24:41.738Z,7.53
2018-01-05T05:27:10.835Z,7.56
2018-01-05T05:29:39.210Z,7.63
2018-01-05T05:32:08.302Z,7.70
2018-01-05T05:34:36.614Z,7.75
2018-01-05T05:37:05.362Z,7.75
2018-01-05T05:39:33.682Z,7.74
2018-01-05T05:42:02.796Z,7.80
2018-01-05T05:44:31.122Z,7.68
2018-01-05T05:46:59.515Z,7.65
2018-01-05T05:49:28.974Z,7.50
2018-01-05T05:51:57.304Z,7.33
2018-01-05T05:54:26.038Z,7.27
2018-01-05T05:56:54.367Z,7.38
2018-01-05T05:59:23.493Z,7.41
2018-01-05T06:01:51.842Z,7.42
2018-01-05T06:04:20.224Z,7.51
2018-01-05T06:06:49.326Z,7.42
2018-01-05T06:09:18.434Z,7.45
2018-01-05T06:11:47.602Z,7.50
2018-01-05T06:14:16.319Z,7.42
2018-01-05T06:16:45.119Z,7.38
2018-01-05T06:19:14.222Z,7.53
2018-01-05T06:21:42.980Z,7.51
2018-01-05T06:24:12.086Z,7.39
2018-01-05T06:26:40.409Z,7.37
2018-01-05T06:29:08.774Z,7.30
2018-01-05T06:31:37.138Z,7.32
2018-01-05T06:34:05.466Z,7.29
2018-01-05T06:36:33.846Z,7.24
2018-01-05T06:39:03.742Z,7.33
2018-01-05T06:41:33.629Z,7.31
2018-01-05T06:44:03.082Z,7.29
2018-01-05T06:46:32.198Z,7.39
2018-01-05T06:49:00.924Z,7.24
2018-01-05T06:51:29.665Z,7.22
2018-01-05T06:53:59.341Z,7.11
2018-01-05T06:56:27.693Z,7.07
2018-01-05T06:58:56.027Z,7.10
2018-01-05T07:01:25.154Z,7.02
2018-01-05T07:03:54.282Z,6.97
2018-01-05T07:06:22.601Z,6.98
2018-01-05T07:08:51.725Z,7.00
2018-01-05T07:11:20.050Z,7.00
2018-01-05T07:13:48.821Z,7.05
2018-01-05T07:16:17.140Z,6.99
2018-01-05T07:18:45.882Z,7.02
2018-01-05T07:21:14.753Z,7.18
2018-01-05T07:23:43.122Z,7.29
2018-01-05T07:26:11.494Z,7.34
2018-01-05T07:28:39.845Z,7.39
2018-01-05T07:31:08.973Z,7.47
2018-01-05T07:33:37.325Z,7.56
2018-01-05T07:36:05.677Z,7.58
2018-01-05T07:38:34.038Z,7.64
2018-01-05T07:41:02.433Z,7.59
2018-01-05T07:43:30.793Z,7.68
2018-01-05T07:45:59.161Z,7.49
2018-01-05T07:48:27.533Z,7.75
2018-01-05T07:50:56.250Z,7.85
2018-01-05T07:53:24.621Z,7.93
2018-01-05T07:55:53.726Z,7.94
2018-01-05T07:58:22.109Z,7.94
2018-01-05T08:00:51.254Z,7.96
2018-01-05T08:03:19.577Z,8.00
2018-01-05T08:05:47.965Z,8.07
2018-01-05T08:08:17.438Z,8.16
2018-01-05T08:10:45.799Z,8.21
2018-01-05T08:13:14.123Z,8.30
2018-01-05T08:15:42.945Z,8.36
2018-01-05T08:18:11.762Z,8.40
2018-01-05T08:20:40.081Z,8.41
2018-01-05T08:23:09.241Z,8.41
2018-01-05T08:25:38.305Z,8.39
2018-01-05T08:28:07.983Z,8.40
2018-01-05T08:30:37.233Z,8.47
2018-01-05T08:33:07.715Z,8.59
2018-01-05T08:35:36.857Z,8.88
2018-01-05T08:38:05.289Z,9.01
2018-01-05T08:40:33.626Z,9.11
2018-01-05T08:43:01.997Z,9.12
2018-01-05T08:45:31.991Z,8.90
2018-01-05T08:48:00.357Z,8.76
2018-01-05T08:50:30.413Z,8.90
2018-01-05T08:52:59.605Z,9.06
2018-01-05T08:55:28.793Z,9.14
2018-01-05T08:57:57.166Z,9.33
2018-01-05T09:00:29.829Z,9.13
2018-01-05T09:02:58.621Z,8.97
2018-01-05T09:05:27.087Z,8.96
2018-01-05T09:07:55.469Z,8.91
2018-01-05T09:10:24.528Z,8.90
2018-01-05T09:12:52.965Z,8.81
2018-01-05T09:15:21.336Z,8.78
2018-01-05T09:17:49.685Z,8.79
2018-01-05T09:20:19.581Z,8.99
2018-01-05T09:22:48.430Z,9.08
2018-01-05T09:25:17.188Z,9.21
2018-01-05T09:27:45.569Z,9.43
2018-01-05T09:30:13.893Z,9.54
2018-01-05T09:32:42.242Z,9.63
2018-01-05T09:35:10.984Z,9.74
2018-01-05T09:37:40.078Z,10.03
2018-01-05T09:40:09.221Z,10.28
2018-01-05T09:42:38.900Z,10.40
2018-01-05T09:45:07.268Z,10.49
2018-01-05T09:47:35.994Z,10.47
2018-01-05T09:50:04.361Z,9.99
2018-01-05T09:52:34.285Z,9.88
2018-01-05T09:55:03.418Z,9.74
2018-01-05T09:57:31.750Z,9.79
2018-01-05T10:00:00.869Z,9.83
2018-01-05T10:02:29.187Z,9.88
2018-01-05T10:04:58.312Z,9.95
2018-01-05T10:07:26.696Z,9.86
2018-01-05T10:09:55.024Z,9.78
2018-01-05T10:12:24.164Z,9.64
2018-01-05T10:14:52.492Z,9.57
2018-01-05T10:17:20.850Z,9.55
2018-01-05T10:19:49.160Z,9.57
2018-01-05T10:22:18.252Z,9.75
2018-01-05T10:24:47.380Z,9.90
2018-01-05T10:27:16.477Z,9.94
2018-01-05T10:29:44.827Z,10.13
2018-01-05T10:32:13.961Z,10.37
2018-01-05T10:34:42.328Z,10.45
2018-01-05T10:37:10.722Z,10.38
2018-01-05T10:39:39.055Z,10.41
2018-01-05T10:42:08.941Z,10.34
2018-01-05T10:44:37.319Z,10.29
2018-01-05T10:47:06.052Z,10.47
2018-01-05T10:49:35.202Z,10.62
2018-01-05T10:52:03.548Z,10.64
2018-01-05T10:54:31.932Z,10.73
2018-01-05T10:57:00.288Z,10.80
2018-01-05T10:59:29.549Z,10.75
2018-01-05T11:01:58.661Z,10.55
2018-01-05T11:04:27.792Z,10.53
2018-01-05T11:06:57.525Z,10.64
2018-01-05T11:09:26.620Z,10.71
2018-01-05T11:11:54.972Z,10.67
2018-01-05T11:14:23.341Z,11.01
2018-01-05T11:16:51.687Z,10.94
2018-01-05T11:19:20.824Z,11.26
2018-01-05T11:21:49.980Z,11.26
2018-01-05T11:24:19.127Z,11.41
2018-01-05T11:26:47.480Z,11.32
2018-01-05T11:29:16.608Z,11.18
2018-01-05T11:31:44.940Z,11.15
2018-01-05T11:34:13.725Z,11.17
2018-01-05T11:36:42.816Z,11.12
2018-01-05T11:39:11.955Z,11.13
2018-01-05T11:41:41.836Z,11.10
2018-01-05T11:44:11.023Z,11.21
2018-01-05T11:46:40.151Z,11.37
2018-01-05T11:49:09.263Z,11.38
2018-01-05T11:51:37.612Z,11.38
2018-01-05T11:54:06.393Z,11.37
2018-01-05T11:56:34.724Z,11.43
2018-01-05T11:59:03.076Z,11.31
2018-01-05T12:01:31.455Z,11.39
2018-01-05T12:04:00.231Z,11.37
2018-01-05T12:06:29.712Z,11.27
2018-01-05T12:08:59.639Z,11.07
2018-01-05T12:11:28.378Z,11.10
2018-01-05T12:13:56.755Z,10.99
2018-01-05T12:16:25.515Z,10.98
2018-01-05T12:18:54.611Z,10.94
2018-01-05T12:21:22.955Z,11.15
2018-01-05T12:23:52.690Z,11.28
2018-01-05T12:26:21.039Z,11.31
2018-01-05T12:28:50.159Z,11.56
2018-01-05T12:31:18.527Z,11.73
2018-01-05T12:33:47.304Z,11.35
2018-01-05T12:36:15.649Z,11.33
2018-01-05T12:38:44.427Z,11.27
2018-01-05T12:41:13.148Z,11.09
2018-01-05T12:43:42.871Z,11.04
2018-01-05T12:46:11.205Z,10.95
2018-01-05T12:48:40.348Z,11.01
2018-01-05T12:51:10.185Z,10.88
2018-01-05T12:53:39.351Z,10.94
2018-01-05T12:56:07.685Z,11.00
2018-01-05T12:58:36.057Z,11.05
2018-01-05T13:01:04.392Z,11.09
2018-01-05T13:03:32.763Z,10.97
2018-01-05T13:06:01.103Z,11.05
2018-01-05T13:08:29.463Z,11.12
2018-01-05T13:10:57.790Z,11.34
2018-01-05T13:13:26.194Z,11.66
2018-01-05T13:15:55.383Z,11.78
2018-01-05T13:18:23.735Z,11.69
2018-01-05T13:20:52.892Z,11.53
2018-01-05T13:23:21.679Z,11.53
2018-01-05T13:25:50.059Z,11.52
2018-01-05T13:28:19.201Z,11.65
2018-01-05T13:30:49.272Z,11.59
2018-01-05T13:33:18.727Z,11.47
2018-01-05T13:35:48.767Z,11.47
2018-01-05T13:38:17.703Z,11.38
2018-01-05T13:40:47.692Z,11.34
2018-01-05T13:43:17.076Z,11.46
2018-01-05T13:45:45.867Z,11.44
2018-01-05T13:48:14.202Z,11.36
2018-01-05T13:50:43.728Z,11.18
2018-01-05T13:53:12.086Z,11.09
2018-01-05T13:55:41.379Z,11.02
2018-01-05T13:58:11.114Z,11.00
2018-01-05T14:00:39.944Z,11.09
2018-01-05T14:03:08.286Z,10.99
2018-01-05T14:05:36.618Z,10.96
2018-01-05T14:08:05.011Z,10.94
2018-01-05T14:10:34.148Z,10.84
2018-01-05T14:13:03.671Z,10.70
2018-01-05T14:15:33.286Z,10.66
2018-01-05T14:18:02.222Z,10.75
2018-01-05T14:20:31.413Z,10.73
2018-01-05T14:22:59.802Z,10.82
2018-01-05T14:25:29.864Z,10.72
2018-01-05T14:27:58.540Z,10.61
2018-01-05T14:30:28.331Z,10.42
2018-01-05T14:32:57.534Z,10.12
2018-01-05T14:35:27.406Z,9.91
2018-01-05T14:37:56.121Z,9.88
2018-01-05T14:40:25.215Z,10.16
2018-01-05T14:42:53.586Z,10.16
2018-01-05T14:45:23.051Z,10.33
2018-01-05T14:47:51.406Z,10.12
2018-01-05T14:53:03.209Z,9.42
2018-01-05T14:55:31.554Z,9.27
2018-01-05T14:58:00.666Z,9.25
2018-01-05T15:00:29.022Z,9.33
2018-01-05T15:02:58.133Z,9.33
2018-01-05T15:05:27.218Z,9.23
2018-01-05T15:07:56.095Z,9.18
2018-01-05T15:10:25.982Z,9.13
2018-01-05T15:12:54.940Z,9.18
2018-01-05T15:15:24.410Z,9.23
2018-01-05T15:17:53.640Z,9.07
2018-01-05T15:20:22.842Z,8.99
2018-01-05T15:22:52.343Z,8.87
2018-01-05T15:25:20.666Z,8.74
2018-01-05T15:27:49.414Z,8.63
2018-01-05T15:30:17.858Z,8.65
2018-01-05T15:32:47.722Z,8.69
2018-01-05T15:35:17.623Z,8.72
2018-01-05T15:37:46.466Z,8.68
2018-01-05T15:40:16.446Z,8.65
2018-01-05T15:42:44.761Z,8.65
2018-01-05T15:45:16.154Z,8.58
2018-01-05T15:47:45.854Z,8.51
2018-01-05T15:50:14.266Z,8.46
2018-01-05T15:52:43.535Z,8.44
2018-01-05T15:55:11.974Z,8.45
2018-01-05T15:57:43.440Z,8.47
2018-01-05T16:00:13.380Z,8.52
2018-01-05T16:02:42.287Z,8.52
2018-01-05T16:05:13.156Z,8.53
2018-01-05T16:07:42.374Z,8.58
2018-01-05T16:10:10.714Z,8.63
2018-01-05T16:12:40.698Z,8.70
2018-01-05T16:15:09.085Z,8.79
2018-01-05T16:17:37.429Z,8.75
2018-01-05T16:20:05.818Z,8.72
2018-01-05T16:22:34.241Z,8.72
2018-01-05T16:25:02.701Z,8.68
2018-01-05T16:27:31.734Z,8.64
2018-01-05T16:30:02.038Z,8.64
2018-01-05T16:32:30.477Z,8.59
2018-01-05T16:34:59.710Z,8.59
2018-01-05T16:37:28.222Z,8.59
2018-01-05T16:39:58.111Z,8.54
2018-01-05T16:42:28.546Z,8.70
2018-01-05T16:44:57.206Z,8.90
2018-01-05T16:47:26.400Z,8.84
2018-01-05T16:49:55.283Z,8.74
2018-01-05T16:52:23.676Z,8.71
2018-01-05T16:54:52.063Z,8.70
2018-01-05T16:57:20.781Z,8.71
2018-01-05T17:06:03.771Z,8.67
2018-01-05T17:08:33.352Z,8.64
2018-01-05T17:11:04.966Z,8.54
2018-01-05T17:13:33.370Z,8.49
2018-01-05T17:16:02.805Z,8.43
2018-01-05T17:18:32.041Z,8.40
2018-01-05T17:21:00.403Z,8.38
2018-01-05T17:23:28.770Z,8.40
2018-01-05T17:25:58.141Z,8.42
2018-01-05T17:28:28.221Z,8.38
2018-01-05T17:30:56.803Z,8.31
2018-01-05T17:33:33.102Z,8.21
2018-01-05T17:36:02.787Z,8.09
2018-01-05T17:38:31.729Z,8.04
2018-01-05T17:41:00.517Z,7.99
2018-01-05T17:43:28.862Z,7.94
2018-01-05T17:45:58.786Z,7.94
2018-01-05T17:48:28.066Z,7.91
2018-01-05T17:50:56.465Z,7.86
2018-01-05T17:53:24.801Z,7.87
2018-01-05T17:55:54.043Z,7.89
2018-01-05T17:58:23.645Z,7.89
2018-01-05T18:00:52.763Z,7.87
2018-01-05T18:03:21.249Z,7.89
2018-01-05T18:05:49.682Z,7.86
2018-01-05T18:08:18.274Z,7.82
2018-01-05T18:10:48.588Z,7.75
2018-01-05T18:13:17.149Z,7.69
2018-01-05T18:15:45.693Z,7.65
2018-01-05T18:18:14.246Z,7.62
2018-01-05T18:20:43.348Z,7.68
2018-01-05T18:23:12.470Z,7.72
2018-01-05T18:25:42.557Z,7.71
2018-01-05T18:28:12.057Z,7.72
2018-01-05T18:30:43.683Z,7.72
2018-01-05T18:33:12.589Z,7.71
2018-01-05T18:35:44.724Z,7.71
2018-01-05T18:38:13.324Z,7.75
2018-01-05T18:40:42.794Z,7.76
2018-01-05T18:43:11.835Z,7.78
2018-01-05T18:45:40.317Z,7.77
2018-01-05T18:48:08.782Z,7.72
2018-01-05T18:50:37.168Z,7.71
2018-01-05T18:53:06.564Z,7.70
2018-01-05T18:55:36.782Z,7.69
2018-01-05T18:58:05.409Z,7.65
2018-01-05T19:00:34.758Z,7.63
2018-01-05T19:03:03.159Z,7.64
2018-01-05T19:05:32.702Z,7.64
2018-01-05T19:08:01.264Z,7.66
2018-01-05T19:10:30.520Z,7.69
2018-01-05T19:12:58.880Z,7.79
2018-01-05T19:15:28.303Z,7.89
2018-01-05T19:17:56.684Z,7.96
2018-01-05T19:20:25.055Z,7.95
2018-01-05T19:22:53.615Z,7.89
2018-01-05T19:25:23.640Z,7.78
2018-01-05T19:27:52.804Z,7.70
2018-01-05T19:30:23.676Z,7.74
2018-01-05T19:32:55.732Z,7.74
2018-01-05T19:35:24.793Z,7.72
2018-01-05T19:37:54.578Z,7.65
2018-01-05T19:40:24.614Z,7.55
2018-01-05T19:43:06.687Z,7.51
2018-01-05T19:45:35.672Z,7.44
2018-01-05T19:48:07.228Z,7.39
2018-01-05T19:50:37.097Z,7.30
2018-01-05T19:53:06.740Z,7.20
2018-01-05T19:55:36.148Z,7.14
2018-01-05T19:58:05.939Z,7.11
2018-01-05T20:00:35.813Z,7.06
2018-01-05T20:03:05.853Z,6.97
2018-01-05T20:05:34.920Z,6.90
2018-01-05T20:08:04.174Z,6.88
2018-01-05T20:10:33.515Z,6.89
2018-01-05T20:13:01.877Z,6.88
2018-01-05T20:15:31.791Z,6.84
2018-01-05T20:18:00.946Z,6.75
2018-01-05T20:20:30.989Z,6.67
2018-01-05T20:23:00.295Z,6.65
2018-01-05T20:25:32.439Z,6.60
2018-01-05T20:28:02.149Z,6.59
2018-01-05T20:30:38.167Z,6.60
2018-01-05T20:33:17.429Z,6.67
2018-01-05T20:35:45.926Z,6.79
2018-01-05T20:38:15.823Z,6.85
2018-01-05T20:40:45.349Z,6.83
2018-01-05T20:43:14.213Z,6.80
2018-01-05T20:45:42.636Z,6.71
2018-01-05T20:48:11.777Z,6.63
2018-01-05T20:50:41.971Z,6.57
2018-01-05T20:53:15.269Z,6.55
2018-01-05T20:55:45.284Z,6.54
2018-01-05T20:58:15.372Z,6.46
2018-01-05T21:00:43.707Z,6.38
2018-01-05T21:03:13.841Z,6.31
2018-01-05T21:05:43.874Z,6.33
2018-01-05T21:08:13.307Z,6.37
2018-01-05T21:10:41.747Z,6.46
2018-01-05T21:13:11.059Z,6.56
2018-01-05T21:15:39.445Z,6.67
2018-01-05T21:18:07.856Z,6.64
2018-01-05T21:20:36.184Z,6.64
2018-01-05T21:23:04.538Z,6.67
2018-01-05T21:25:34.007Z,6.67
2018-01-05T21:28:03.257Z,6.65
2018-01-05T21:30:32.625Z,6.56
2018-01-05T21:33:03.444Z,6.43
2018-01-05T21:35:32.610Z,6.38
2018-01-05T21:38:02.606Z,6.37
2018-01-05T21:40:33.608Z,6.30
2018-01-05T21:43:05.919Z,6.24
2018-01-05T21:45:38.643Z,6.21
2018-01-05T21:48:10.739Z,6.17
2018-01-05T21:50:44.195Z,6.14
2018-01-05T21:53:15.319Z,6.08
2018-01-05T21:55:44.662Z,6.11
2018-01-05T21:58:14.406Z,6.06
2018-01-05T22:00:44.195Z,6.10
2018-01-05T22:03:15.252Z,6.06
2018-01-05T22:05:44.843Z,6.10
2018-01-05T22:08:14.095Z,6.08
2018-01-05T22:10:43.706Z,6.25
2018-01-05T22:13:13.573Z,6.38
2018-01-05T22:15:42.710Z,6.47
2018-01-05T22:18:13.314Z,6.52
2018-01-05T22:20:41.755Z,6.52
2018-01-05T22:23:12.030Z,6.55
2018-01-05T22:25:41.126Z,6.61
2018-01-05T22:28:09.543Z,6.66
2018-01-05T22:30:39.795Z,6.71
2018-01-05T22:33:08.187Z,6.74
2018-01-05T22:35:36.992Z,6.68
2018-01-05T22:38:05.514Z,6.60
2018-01-05T22:40:33.998Z,6.53
2018-01-05T22:43:03.032Z,6.54
2018-01-05T22:45:32.102Z,6.53
2018-01-05T22:48:01.235Z,6.52
2018-01-05T22:50:30.546Z,6.51
2018-01-05T22:52:58.874Z,6.50
2018-01-05T22:55:28.130Z,6.48
2018-01-05T22:57:56.554Z,6.43
2018-01-05T23:00:25.646Z,6.42
2018-01-05T23:02:54.790Z,6.42
2018-01-05T23:05:23.156Z,6.42
2018-01-05T23:07:52.120Z,6.42
2018-01-05T23:10:21.242Z,6.40
2018-01-05T23:12:50.498Z,6.37
2018-01-05T23:15:19.030Z,6.34
2018-01-05T23:17:48.258Z,6.33
2018-01-05T23:20:16.618Z,6.30
2018-01-05T23:22:46.890Z,6.30
2018-01-05T23:25:17.902Z,6.33
2018-01-05T23:27:46.361Z,6.36
2018-01-05T23:30:15.486Z,6.37
2018-01-05T23:32:43.927Z,6.35
2018-01-05T23:35:12.330Z,6.33
2018-01-05T23:37:40.698Z,6.30
2018-01-05T23:40:09.054Z,6.32
2018-01-05T23:42:37.418Z,6.42
2018-01-05T23:45:05.790Z,6.42
2018-01-05T23:47:34.110Z,6.44
2018-01-05T23:50:02.438Z,6.45
2018-01-05T23:52:31.724Z,6.44
2018-01-05T23:55:00.854Z,6.49
2018-01-05T23:57:29.178Z,6.44
2018-01-05T23:59:57.557Z,6.40
